Time;durP1;ratioP1;P1;durP2;ratioP2;P2;SDS_P1;SDS_P2;PMS_P1;PMS_P2;Temp;Humidity;BMP_temperature;BMP_pressure;BME280_temperature;BME280_humidity;BME280_pressure;Samples;Min_cycle;Max_cycle;Signal;HPM_P1;HPM_P2
2023/03/10 07:21:11;;;;;;;2.77;2.47;;;7.30;99.90;;;;;;5095353;28;21130;-80
2023/03/10 07:25:35;;;;;;;3.43;2.57;;;7.30;99.90;;;;;;5136677;27;20282;-80
2023/03/10 07:29:58;;;;;;;6.73;2.47;;;7.40;99.90;;;;;;5136644;27;20296;-80
2023/03/10 07:33:56;;;;;;;4.53;2.07;;;7.50;99.90;;;;;;5136423;27;20276;-81
2023/03/10 07:37:50;;;;;;;5.27;2.13;;;7.60;99.90;;;;;;5157119;27;20626;-81
2023/03/10 07:41:39;;;;;;;4.93;2.17;;;7.60;99.90;;;;;;5137234;27;20280;-81
2023/03/10 07:44:05;;;;;;;6.80;2.57;;;7.70;99.90;;;;;;5118565;28;20276;-81
2023/03/10 07:46:31;;;;;;;3.17;2.30;;;7.80;99.90;;;;;;5117982;28;20182;-81
2023/03/10 07:48:59;;;;;;;4.53;1.87;;;7.80;99.90;;;;;;5136051;28;20619;-81
2023/03/10 07:51:25;;;;;;;2.80;2.13;;;7.90;99.90;;;;;;5136416;28;20568;-81
2023/03/10 07:53:52;;;;;;;6.90;2.27;;;7.80;99.90;;;;;;5134939;28;20182;-81
2023/03/10 07:56:18;;;;;;;4.97;2.53;;;7.90;99.90;;;;;;5136456;28;20621;-81
2023/03/10 07:58:43;;;;;;;4.00;1.90;;;7.90;99.90;;;;;;5139001;27;20201;-81
2023/03/10 08:01:15;;;;;;;6.80;3.00;;;7.90;99.90;;;;;;5135499;28;20209;-82
2023/03/10 08:03:40;;;;;;;4.23;2.40;;;8.00;99.90;;;;;;5134871;28;20200;-81
2023/03/10 08:06:06;;;;;;;5.07;3.27;;;8.20;99.90;;;;;;5135068;28;20175;-81
2023/03/10 08:08:32;;;;;;;4.43;2.23;;;8.40;99.90;;;;;;5136124;27;20676;-80
2023/03/10 08:11:08;;;;;;;3.97;1.93;;;9.00;99.90;;;;;;5134164;28;20186;-81
2023/03/10 08:13:34;;;;;;;4.40;2.00;;;10.10;99.90;;;;;;5134462;28;20182;-81
2023/03/10 08:16:01;;;;;;;3.20;1.60;;;11.30;99.90;;;;;;5136659;27;20565;-81
2023/03/10 08:18:28;;;;;;;2.77;1.90;;;11.60;99.90;;;;;;5135937;28;20195;-81
2023/03/10 08:20:54;;;;;;;2.33;1.40;;;11.50;99.90;;;;;;5137367;27;20332;-81
2023/03/10 08:23:20;;;;;;;3.07;1.93;;;11.50;99.90;;;;;;5136695;28;20178;-81
2023/03/10 08:25:46;;;;;;;4.23;2.10;;;12.00;99.90;;;;;;5136410;28;20179;-81
2023/03/10 08:28:11;;;;;;;4.17;2.13;;;12.40;99.90;;;;;;5136499;27;20662;-82
2023/03/10 08:30:38;;;;;;;2.60;1.97;;;12.50;99.90;;;;;;5135169;28;20282;-82
2023/03/10 08:33:07;;;;;;;3.10;1.67;;;12.20;99.90;;;;;;5133893;28;20188;-82
2023/03/10 08:35:36;;;;;;;4.57;1.90;;;11.80;99.90;;;;;;5138319;27;20181;-82
2023/03/10 08:38:03;;;;;;;2.90;1.70;;;12.10;99.90;;;;;;5134954;28;20525;-82
2023/03/10 08:40:30;;;;;;;5.87;2.00;;;12.50;99.90;;;;;;5134266;28;20242;-83
2023/03/10 08:42:55;;;;;;;3.00;1.50;;;12.70;99.90;;;;;;5136076;27;20171;-84
2023/03/10 08:45:21;;;;;;;7.80;3.70;;;12.10;99.90;;;;;;5135897;27;20231;-83
2023/03/10 08:47:47;;;;;;;3.03;1.90;;;11.60;99.90;;;;;;5134664;28;20179;-81
2023/03/10 08:50:13;;;;;;;3.77;1.13;;;11.10;99.90;;;;;;5136023;28;20651;-83
2023/03/10 08:52:39;;;;;;;9.23;5.37;;;10.90;99.90;;;;;;5121815;28;20176;-82
2023/03/10 08:55:07;;;;;;;35.83;15.90;;;10.80;99.90;;;;;;5118305;28;20175;-82
2023/03/10 08:57:32;;;;;;;176.43;81.77;;;10.80;99.90;;;;;;5119319;27;20171;-82
2023/03/10 08:59:59;;;;;;;52.67;21.83;;;10.60;99.90;;;;;;5119261;28;20272;-82
2023/03/10 09:02:26;;;;;;;4.53;2.27;;;10.40;99.90;;;;;;5117600;28;20164;-82
2023/03/10 09:04:52;;;;;;;1.67;1.57;;;10.00;99.90;;;;;;5117112;28;20550;-83
2023/03/10 09:07:18;;;;;;;1.93;1.77;;;9.60;99.90;;;;;;5120700;28;20183;-82
2023/03/10 09:09:43;;;;;;;4.50;2.93;;;9.50;99.90;;;;;;5122364;28;20195;-82
2023/03/10 09:12:11;;;;;;;3.30;2.47;;;9.40;99.90;;;;;;5124461;28;20638;-81
2023/03/10 09:14:37;;;;;;;3.77;2.13;;;9.40;99.90;;;;;;5124391;28;20171;-81
2023/03/10 09:17:03;;;;;;;3.53;2.37;;;9.30;99.90;;;;;;5122042;28;20194;-82
2023/03/10 09:19:29;;;;;;;2.50;2.10;;;9.10;99.90;;;;;;5121924;28;20206;-81
2023/03/10 09:21:56;;;;;;;2.00;1.80;;;9.00;99.90;;;;;;5121438;28;20266;-83
2023/03/10 09:24:23;;;;;;;5.20;3.67;;;9.20;99.90;;;;;;5123427;28;20172;-83
2023/03/10 09:26:48;;;;;;;5.13;3.77;;;9.20;99.90;;;;;;5123384;28;20171;-82
2023/03/10 09:29:14;;;;;;;1.40;1.30;;;9.50;99.90;;;;;;5121038;28;20195;-81
2023/03/10 09:31:40;;;;;;;3.33;2.47;;;9.50;99.90;;;;;;5122726;28;20179;-82
2023/03/10 09:34:07;;;;;;;1.20;1.10;;;9.50;99.90;;;;;;5121693;28;20174;-83
2023/03/10 09:36:33;;;;;;;1.23;0.90;;;9.30;99.90;;;;;;5130903;28;20183;-82
2023/03/10 09:38:59;;;;;;;1.23;1.00;;;9.30;99.90;;;;;;5123904;28;20298;-81
2023/03/10 09:41:49;;;;;;;0.70;0.70;;;9.00;99.90;;;;;;5121470;27;20200;-82
2023/03/10 09:44:15;;;;;;;0.80;0.80;;;8.30;99.90;;;;;;5123600;28;20666;-83
2023/03/10 09:46:52;;;;;;;1.10;1.00;;;7.80;99.90;;;;;;5123568;28;20180;-84
2023/03/10 09:49:30;;;;;;;0.87;0.87;;;7.40;99.90;;;;;;5120900;28;20191;-80
2023/03/10 09:51:56;;;;;;;0.70;0.70;;;6.90;99.90;;;;;;5121951;28;20609;-81
2023/03/10 09:54:45;;;;;;;0.77;0.77;;;6.60;99.90;;;;;;5121166;28;20218;-82
2023/03/10 09:57:17;;;;;;;1.10;1.00;;;6.50;99.90;;;;;;5120997;28;20241;-83
2023/03/10 09:59:46;;;;;;;0.97;0.90;;;6.50;99.90;;;;;;5120821;28;20238;-84
2023/03/10 10:02:33;;;;;;;1.00;1.00;;;6.40;99.90;;;;;;5120835;28;20633;-82
2023/03/10 10:05:03;;;;;;;0.90;0.90;;;6.40;99.90;;;;;;5122429;28;20186;-82
2023/03/10 10:07:42;;;;;;;1.47;1.13;;;6.50;99.90;;;;;;5120233;28;20637;-82
2023/03/10 10:10:15;;;;;;;1.20;1.10;;;6.60;99.90;;;;;;5121594;28;20257;-81
2023/03/10 10:12:42;;;;;;;0.87;0.87;;;6.80;99.90;;;;;;5121145;28;20171;-81
2023/03/10 10:15:17;;;;;;;0.60;0.60;;;7.20;99.90;;;;;;5121796;28;20182;-81
2023/03/10 10:18:03;;;;;;;1.00;0.90;;;8.00;99.90;;;;;;5119272;28;20179;-82
2023/03/10 10:20:38;;;;;;;1.33;0.90;;;8.70;99.90;;;;;;5118846;28;20203;-82
2023/03/10 10:23:14;;;;;;;1.50;0.60;;;9.50;99.90;;;;;;5119076;28;20170;-82
2023/03/10 10:25:39;;;;;;;0.70;0.70;;;9.60;99.90;;;;;;5121286;28;20159;-82
2023/03/10 10:28:19;;;;;;;0.70;0.70;;;9.70;99.90;;;;;;5119553;28;20175;-82
2023/03/10 10:30:45;;;;;;;0.73;0.73;;;10.30;99.90;;;;;;5119980;28;20171;-83
2023/03/10 10:33:12;;;;;;;0.53;0.53;;;10.40;99.90;;;;;;5120521;28;20202;-83
2023/03/10 10:35:41;;;;;;;2.23;0.70;;;10.80;99.90;;;;;;5122871;28;20179;-83
2023/03/10 10:38:10;;;;;;;1.37;0.87;;;10.80;99.90;;;;;;5118167;28;20226;-83
2023/03/10 10:40:46;;;;;;;2.17;0.97;;;11.20;99.90;;;;;;5120105;28;20290;-82
2023/03/10 10:43:19;;;;;;;1.53;0.63;;;11.40;99.90;;;;;;5119797;28;20585;-83
2023/03/10 10:45:55;;;;;;;1.20;0.60;;;11.60;99.90;;;;;;5117976;28;20194;-81
2023/03/10 10:48:29;;;;;;;1.63;0.60;;;11.60;99.90;;;;;;5121335;28;20207;-85
2023/03/10 10:50:55;;;;;;;1.67;0.70;;;11.50;99.90;;;;;;5121325;28;20177;-83
2023/03/10 10:53:23;;;;;;;1.90;0.60;;;11.20;99.90;;;;;;5120955;28;20177;-82
2023/03/10 10:56:02;;;;;;;2.27;0.80;;;11.00;99.90;;;;;;5118119;28;20188;-81
2023/03/10 10:58:28;;;;;;;0.77;0.60;;;11.20;99.90;;;;;;5118468;28;20193;-82
2023/03/10 11:00:57;;;;;;;0.93;0.60;;;11.30;99.90;;;;;;5118963;28;20215;-83
2023/03/10 11:03:37;;;;;;;1.10;0.70;;;11.70;99.90;;;;;;5116964;28;20174;-84
2023/03/10 11:06:21;;;;;;;1.03;0.60;;;12.10;99.90;;;;;;5116503;28;20172;-81
2023/03/10 11:08:49;;;;;;;1.27;0.90;;;12.60;99.90;;;;;;5117583;28;20198;-83
2023/03/10 11:11:35;;;;;;;0.70;0.60;;;12.50;99.90;;;;;;5117739;28;20181;-82
2023/03/10 11:14:19;;;;;;;1.43;0.93;;;11.90;99.90;;;;;;5115165;28;20177;-82
2023/03/10 11:17:11;;;;;;;2.70;0.73;;;11.70;99.90;;;;;;5115459;28;20173;-80
2023/03/10 11:19:48;;;;;;;1.03;0.73;;;12.00;99.90;;;;;;5114329;28;20563;-81
2023/03/10 11:22:29;;;;;;;1.10;0.77;;;12.40;99.90;;;;;;5113902;28;20199;-83
2023/03/10 11:25:19;;;;;;;1.50;0.90;;;12.60;99.90;;;;;;5118812;28;20184;-84
2023/03/10 11:28:11;;;;;;;1.47;0.70;;;11.70;99.90;;;;;;5120976;28;20159;-82
2023/03/10 11:30:48;;;;;;;1.47;0.60;;;11.10;99.90;;;;;;5118143;28;20179;-82
2023/03/10 11:33:35;;;;;;;1.27;0.70;;;11.10;99.90;;;;;;5119302;28;20159;-83
2023/03/10 11:36:21;;;;;;;3.63;0.70;;;11.30;99.90;;;;;;5117033;28;20180;-82
2023/03/10 11:38:50;;;;;;;2.50;0.80;;;11.30;99.90;;;;;;5117749;28;20202;-82
2023/03/10 11:41:25;;;;;;;1.77;0.40;;;11.10;99.90;;;;;;5120013;28;20230;-84
2023/03/10 11:43:56;;;;;;;1.17;0.67;;;10.90;99.90;;;;;;5119726;28;20170;-83
2023/03/10 11:46:31;;;;;;;1.33;0.60;;;10.70;99.90;;;;;;5120821;28;20191;-84
2023/03/10 11:49:14;;;;;;;0.73;0.60;;;10.40;99.90;;;;;;5117922;28;20216;-81
2023/03/10 11:51:40;;;;;;;3.67;0.40;;;10.20;99.90;;;;;;5117038;28;20175;-82
2023/03/10 11:54:30;;;;;;;0.67;0.50;;;10.00;99.90;;;;;;5118612;28;20175;-81
2023/03/10 11:56:58;;;;;;;0.40;0.40;;;9.70;99.90;;;;;;5119979;28;20176;-81
2023/03/10 11:59:29;;;;;;;1.97;0.60;;;9.60;99.90;;;;;;5118075;28;20557;-84
2023/03/10 12:02:01;;;;;;;1.10;0.80;;;9.60;99.90;;;;;;5118840;28;20179;-83
2023/03/10 12:04:44;;;;;;;1.87;1.10;;;9.60;99.90;;;;;;5117118;28;20184;-84
2023/03/10 12:07:14;;;;;;;1.00;0.90;;;10.10;99.90;;;;;;5119603;28;20164;-81
2023/03/10 12:09:42;;;;;;;1.00;0.80;;;11.00;99.90;;;;;;5119000;28;20668;-81
2023/03/10 12:12:30;;;;;;;3.13;0.73;;;11.90;99.90;;;;;;5118640;28;20649;-83
2023/03/10 12:14:58;;;;;;;0.90;0.70;;;11.80;99.90;;;;;;5106476;28;20244;-82
2023/03/10 12:17:24;;;;;;;1.63;0.80;;;11.30;99.90;;;;;;5120413;28;20263;-84
2023/03/10 12:20:11;;;;;;;1.17;0.77;;;11.00;99.90;;;;;;5117909;28;20250;-82
2023/03/10 12:22:52;;;;;;;1.20;0.60;;;10.90;99.90;;;;;;5116496;28;20629;-82
2023/03/10 12:25:27;;;;;;;2.57;1.37;;;11.20;99.90;;;;;;5120419;28;20639;-84
2023/03/10 12:28:14;;;;;;;2.13;1.30;;;11.30;99.90;;;;;;5122797;28;20207;-83
2023/03/10 12:30:57;;;;;;;2.30;1.43;;;11.20;99.90;;;;;;5126030;28;20202;-82
2023/03/10 12:33:29;;;;;;;1.03;0.70;;;11.10;99.90;;;;;;5123566;28;20183;-83
2023/03/10 12:36:19;;;;;;;0.80;0.63;;;11.40;99.90;;;;;;5124103;28;20621;-82
2023/03/10 12:38:59;;;;;;;0.83;0.60;;;10.50;99.90;;;;;;5115983;28;20218;-82
2023/03/10 12:41:27;;;;;;;1.03;0.60;;;10.50;99.90;;;;;;5121942;28;20279;-82
2023/03/10 12:43:55;;;;;;;1.20;1.10;;;10.20;99.90;;;;;;5120472;28;20654;-83
2023/03/10 12:46:39;;;;;;;0.40;0.40;;;10.30;99.90;;;;;;5123501;28;20179;-81
2023/03/10 12:49:32;;;;;;;0.40;0.40;;;10.30;99.90;;;;;;5125224;28;20214;-79
2023/03/10 12:51:57;;;;;;;0.50;0.43;;;10.60;99.90;;;;;;5123661;28;20168;-84
2023/03/10 12:54:37;;;;;;;1.30;0.83;;;10.80;99.90;;;;;;5126689;28;20206;-83
2023/03/10 12:57:38;;;;;;;0.40;0.40;;;10.30;99.90;;;;;;5124616;27;20184;-82
2023/03/10 13:00:26;;;;;;;2.23;0.50;;;9.80;99.90;;;;;;5123997;28;20298;-83
2023/03/10 13:02:58;;;;;;;1.80;0.60;;;9.60;99.90;;;;;;5123645;28;20179;-84
2023/03/10 13:05:36;;;;;;;0.60;0.60;;;9.70;99.90;;;;;;5125215;28;20570;-83
2023/03/10 13:08:13;;;;;;;0.50;0.40;;;10.10;99.90;;;;;;5128584;28;20170;-82
2023/03/10 13:10:39;;;;;;;0.40;0.40;;;10.10;99.90;;;;;;5122627;28;20174;-83
2023/03/10 13:13:07;;;;;;;0.40;0.40;;;10.00;99.90;;;;;;5121170;28;20180;-81
2023/03/10 13:15:34;;;;;;;1.17;0.60;;;9.90;99.90;;;;;;5121833;28;20182;-82
2023/03/10 13:18:14;;;;;;;0.30;0.30;;;9.70;99.90;;;;;;5122369;28;20254;-85
2023/03/10 13:20:40;;;;;;;0.40;0.40;;;9.70;99.90;;;;;;5121842;28;20340;-87
2023/03/10 13:23:26;;;;;;;2.93;1.00;;;9.50;99.90;;;;;;5123634;28;20203;-84
2023/03/10 13:25:58;;;;;;;1.10;0.80;;;10.00;99.90;;;;;;5123676;28;20152;-84
2023/03/10 13:28:25;;;;;;;0.70;0.50;;;10.20;99.90;;;;;;5120593;28;20253;-81
2023/03/10 13:31:04;;;;;;;0.40;0.40;;;11.10;99.90;;;;;;5121590;28;20549;-82
2023/03/10 13:33:30;;;;;;;0.60;0.50;;;11.50;99.90;;;;;;5124948;28;20775;-81
2023/03/10 13:35:56;;;;;;;0.50;0.50;;;10.90;99.90;;;;;;5122930;28;20207;-85
2023/03/10 13:38:23;;;;;;;0.53;0.53;;;10.20;99.90;;;;;;5120959;28;20200;-83
2023/03/10 13:41:01;;;;;;;0.60;0.50;;;10.00;99.90;;;;;;5122218;28;20227;-83
2023/03/10 13:43:34;;;;;;;0.40;0.40;;;9.80;99.90;;;;;;5120528;28;20182;-83
2023/03/10 13:46:01;;;;;;;0.30;0.30;;;9.70;99.90;;;;;;5120361;28;20532;-80
2023/03/10 13:48:29;;;;;;;0.30;0.30;;;9.40;99.90;;;;;;5121849;28;20222;-84
2023/03/10 13:51:18;;;;;;;0.60;0.50;;;9.20;99.90;;;;;;5123593;28;20209;-82
2023/03/10 13:53:46;;;;;;;0.40;0.40;;;9.00;99.90;;;;;;5122439;28;20187;-84
2023/03/10 13:56:36;;;;;;;0.50;0.30;;;8.90;99.90;;;;;;5122896;28;20186;-83
2023/03/10 13:59:05;;;;;;;4.63;0.40;;;8.90;99.90;;;;;;5122980;28;20264;-84
2023/03/10 14:01:35;;;;;;;0.60;0.40;;;8.70;99.90;;;;;;5124509;28;20708;-82
2023/03/10 14:04:07;;;;;;;0.90;0.50;;;8.70;99.90;;;;;;5121993;28;20220;-83
2023/03/10 14:06:34;;;;;;;1.23;0.40;;;8.60;99.90;;;;;;5121431;28;20174;-82
2023/03/10 14:09:22;;;;;;;0.40;0.40;;;8.60;99.90;;;;;;5121816;28;20244;-83
2023/03/10 14:11:49;;;;;;;0.60;0.40;;;8.40;99.90;;;;;;5121275;28;20198;-84
2023/03/10 14:14:30;;;;;;;0.70;0.60;;;8.20;99.90;;;;;;5120832;28;20175;-83
2023/03/10 14:17:05;;;;;;;0.60;0.60;;;8.00;99.90;;;;;;5121323;28;20526;-83
2023/03/10 14:19:38;;;;;;;0.50;0.50;;;7.90;99.90;;;;;;5120243;28;20728;-81
2023/03/10 14:22:20;;;;;;;0.50;0.50;;;7.90;99.90;;;;;;5120340;28;20181;-84
2023/03/10 14:24:45;;;;;;;0.97;0.97;;;7.60;99.90;;;;;;5120093;28;20223;-82
2023/03/10 14:27:12;;;;;;;0.50;0.50;;;7.40;99.90;;;;;;5117868;28;20181;-84
2023/03/10 14:29:39;;;;;;;0.50;0.50;;;7.20;99.90;;;;;;5121015;28;20197;-82
2023/03/10 14:32:08;;;;;;;0.60;0.60;;;7.00;99.90;;;;;;5121575;28;20169;-81
2023/03/10 14:34:34;;;;;;;0.80;0.80;;;6.80;99.90;;;;;;5117918;28;20684;-81
2023/03/10 14:36:59;;;;;;;0.67;0.67;;;6.60;99.90;;;;;;5121991;27;20173;-82
2023/03/10 14:39:25;;;;;;;0.70;0.70;;;6.60;99.90;;;;;;5116895;28;20196;-82
2023/03/10 14:41:51;;;;;;;0.83;0.70;;;6.60;99.90;;;;;;5117261;28;20184;-82
2023/03/10 14:44:16;;;;;;;0.50;0.50;;;6.60;99.90;;;;;;5118678;28;20183;-83
2023/03/10 14:46:43;;;;;;;0.60;0.60;;;6.70;99.90;;;;;;5120121;28;20182;-83
2023/03/10 14:49:14;;;;;;;0.60;0.60;;;6.80;99.90;;;;;;5120052;28;20192;-83
2023/03/10 14:51:39;;;;;;;1.37;0.97;;;7.00;99.90;;;;;;5118613;28;20180;-83
2023/03/10 14:54:18;;;;;;;5.10;2.30;;;7.00;99.90;;;;;;5117597;28;20634;-83
2023/03/10 14:56:44;;;;;;;7.90;3.97;;;6.90;99.90;;;;;;5119790;28;20204;-83
2023/03/10 14:59:14;;;;;;;1.23;1.07;;;6.80;99.90;;;;;;5116695;28;20204;-83
2023/03/10 15:01:41;;;;;;;0.70;0.70;;;6.70;99.90;;;;;;5116128;28;20685;-84
2023/03/10 15:04:17;;;;;;;0.80;0.80;;;6.70;99.90;;;;;;5117643;28;20267;-81
2023/03/10 15:06:43;;;;;;;1.20;0.77;;;6.60;99.90;;;;;;5117958;28;20200;-82
2023/03/10 15:09:10;;;;;;;0.90;0.90;;;6.60;99.90;;;;;;5121588;28;20273;-86
2023/03/10 15:11:36;;;;;;;0.70;0.70;;;6.70;99.90;;;;;;5117298;28;20221;-84
2023/03/10 15:14:09;;;;;;;4.00;1.00;;;6.80;99.90;;;;;;5119366;28;20212;-84
2023/03/10 15:16:34;;;;;;;1.10;0.90;;;7.00;99.90;;;;;;5119736;28;20236;-84
2023/03/10 15:19:00;;;;;;;1.50;1.00;;;7.10;99.90;;;;;;5119341;28;20223;-81
2023/03/10 15:21:26;;;;;;;0.87;0.87;;;7.10;99.90;;;;;;5116784;28;20211;-83
2023/03/10 15:23:53;;;;;;;1.27;0.90;;;7.10;99.90;;;;;;5117379;28;20196;-83
2023/03/10 15:26:19;;;;;;;1.43;1.03;;;7.20;99.90;;;;;;5117868;28;20176;-84
2023/03/10 15:28:45;;;;;;;0.97;0.93;;;7.30;99.90;;;;;;5119518;28;20645;-85
2023/03/10 15:31:10;;;;;;;1.17;0.90;;;7.20;99.90;;;;;;5116900;28;20280;-83
2023/03/10 15:33:36;;;;;;;0.80;0.80;;;7.30;99.90;;;;;;5117889;28;20282;-83
2023/03/10 15:36:02;;;;;;;1.03;0.93;;;7.30;99.90;;;;;;5116895;28;20202;-83
2023/03/10 15:38:28;;;;;;;0.80;0.80;;;7.40;99.90;;;;;;5116404;28;20200;-83
2023/03/10 15:40:55;;;;;;;1.33;1.10;;;7.40;99.90;;;;;;5117153;28;20205;-83
2023/03/10 15:43:21;;;;;;;0.63;0.63;;;7.50;99.90;;;;;;5119022;28;20186;-83
2023/03/10 15:45:49;;;;;;;0.80;0.70;;;7.50;99.90;;;;;;5119405;28;20183;-83
2023/03/10 15:48:15;;;;;;;1.37;0.90;;;7.40;99.90;;;;;;5115503;28;20203;-83
2023/03/10 15:50:43;;;;;;;1.20;1.10;;;7.40;99.90;;;;;;5116141;28;20191;-81
2023/03/10 15:53:09;;;;;;;1.10;1.00;;;7.40;99.90;;;;;;5117282;28;20174;-83
2023/03/10 15:55:41;;;;;;;1.10;1.00;;;7.30;99.90;;;;;;5119092;28;20180;-85
2023/03/10 15:58:08;;;;;;;2.00;1.23;;;6.80;99.90;;;;;;5118691;28;20177;-83
2023/03/10 16:00:34;;;;;;;1.67;0.70;;;6.80;99.90;;;;;;5116163;28;20204;-82
2023/03/10 16:31:09;;;;;;;1.30;1.20;;;6.00;99.90;;;;;;5144257;27;20271;-81
2023/03/10 16:40:07;;;;;;;1.40;1.30;;;5.80;99.90;;;;;;5135009;27;20295;-81
